Time;durP1;ratioP1;P1;durP2;ratioP2;P2;SDS_P1;SDS_P2;PMS_P1;PMS_P2;Temp;Humidity;BMP_temperature;BMP_pressure;BME280_temperature;BME280_humidity;BME280_pressure;Samples;Min_cycle;Max_cycle;Signal;HPM_P1;HPM_P2
2022/03/17 00:01:52;;;;;;;0.50;0.50;;;5.60;99.90;;;;;;5073982;28;20415;-71
2022/03/17 00:04:40;;;;;;;0.50;0.50;;;5.60;99.90;;;;;;5074108;28;20458;-71
2022/03/17 00:07:27;;;;;;;0.50;0.50;;;5.50;99.90;;;;;;5074344;28;20915;-71
2022/03/17 00:10:16;;;;;;;0.40;0.40;;;5.50;99.90;;;;;;5073803;28;20423;-70
2022/03/17 00:13:03;;;;;;;0.50;0.50;;;5.40;99.90;;;;;;5074308;28;20424;-69
2022/03/17 00:15:50;;;;;;;0.40;0.40;;;5.50;99.90;;;;;;5074148;28;20447;-71
2022/03/17 00:18:37;;;;;;;0.47;0.47;;;5.50;99.90;;;;;;5073858;28;20432;-69
2022/03/17 00:21:25;;;;;;;0.50;0.50;;;5.40;99.90;;;;;;5075134;28;20928;-71
2022/03/17 00:24:12;;;;;;;0.40;0.40;;;5.50;99.90;;;;;;5073750;28;20516;-71
2022/03/17 00:26:59;;;;;;;0.40;0.40;;;5.60;99.90;;;;;;5073866;28;20424;-70
2022/03/17 00:29:46;;;;;;;0.40;0.40;;;5.50;99.90;;;;;;5074160;28;20423;-70
2022/03/17 00:32:33;;;;;;;0.40;0.40;;;5.40;99.90;;;;;;5074077;28;20822;-71
2022/03/17 00:35:36;;;;;;;0.50;0.50;;;5.40;99.90;;;;;;5073677;28;21125;-70
2022/03/17 00:38:24;;;;;;;0.40;0.40;;;5.40;99.90;;;;;;5071135;28;20431;-71
2022/03/17 00:41:11;;;;;;;0.50;0.50;;;5.50;99.90;;;;;;5074243;28;20420;-72
2022/03/17 00:43:58;;;;;;;0.40;0.40;;;5.40;99.90;;;;;;5074382;28;21025;-69
2022/03/17 00:46:44;;;;;;;0.50;0.50;;;5.40;99.90;;;;;;5074889;28;20412;-70
2022/03/17 00:49:31;;;;;;;0.40;0.40;;;5.40;99.90;;;;;;5074422;28;20952;-71
2022/03/17 00:52:20;;;;;;;0.60;0.60;;;5.30;99.90;;;;;;5073796;28;20552;-70
2022/03/17 00:55:09;;;;;;;0.50;0.50;;;5.30;99.90;;;;;;5074317;28;20525;-70
2022/03/17 00:57:55;;;;;;;0.50;0.50;;;5.20;99.90;;;;;;5073684;28;20420;-70
2022/03/17 01:00:42;;;;;;;0.40;0.40;;;5.30;99.90;;;;;;5074332;28;20441;-70
2022/03/17 01:03:29;;;;;;;0.60;0.60;;;5.20;99.90;;;;;;5074427;28;20451;-71
2022/03/17 01:06:16;;;;;;;0.50;0.50;;;5.10;99.90;;;;;;5074338;28;20897;-70
2022/03/17 01:09:03;;;;;;;0.50;0.50;;;5.10;99.90;;;;;;5074099;28;20423;-69
2022/03/17 01:11:51;;;;;;;0.50;0.50;;;5.10;99.90;;;;;;5073717;28;20521;-70
2022/03/17 01:14:38;;;;;;;0.50;0.50;;;5.20;99.90;;;;;;5073765;28;20467;-70
2022/03/17 01:17:25;;;;;;;0.60;0.60;;;5.10;99.90;;;;;;5073929;28;20427;-69
2022/03/17 01:20:13;;;;;;;0.40;0.40;;;5.10;99.90;;;;;;5073457;28;20428;-70
2022/03/17 01:23:00;;;;;;;0.50;0.50;;;5.10;99.90;;;;;;5073602;28;20434;-70
2022/03/17 01:25:47;;;;;;;0.40;0.40;;;5.10;99.90;;;;;;5105356;22;20486;-66
2022/03/17 01:28:36;;;;;;;0.40;0.40;;;5.10;99.90;;;;;;5095609;28;20415;-66
2022/03/17 01:31:24;;;;;;;0.40;0.40;;;5.00;99.90;;;;;;5095028;28;20490;-66
2022/03/17 01:34:11;;;;;;;0.40;0.40;;;5.10;99.90;;;;;;5098754;28;20453;-66
2022/03/17 01:36:58;;;;;;;0.40;0.40;;;5.10;99.90;;;;;;5112427;28;20429;-65
2022/03/17 01:39:44;;;;;;;0.40;0.40;;;5.00;99.90;;;;;;5113446;28;20475;-66
2022/03/17 01:42:32;;;;;;;0.40;0.40;;;5.00;99.90;;;;;;5113037;28;20418;-66
2022/03/17 01:45:20;;;;;;;0.50;0.50;;;5.00;99.90;;;;;;5113328;28;20824;-66
2022/03/17 01:48:07;;;;;;;0.47;0.47;;;5.00;99.90;;;;;;5113234;28;20425;-66
2022/03/17 01:50:54;;;;;;;0.40;0.40;;;5.10;99.90;;;;;;5112732;28;20479;-66
2022/03/17 01:53:43;;;;;;;0.40;0.40;;;5.00;99.90;;;;;;5113105;28;20422;-66
2022/03/17 01:56:30;;;;;;;0.40;0.40;;;5.00;99.90;;;;;;5114042;28;20421;-65
2022/03/17 01:59:17;;;;;;;0.40;0.40;;;5.00;99.90;;;;;;5112902;28;20421;-65
2022/03/17 02:02:07;;;;;;;0.87;0.87;;;5.00;99.90;;;;;;5117124;28;20413;-66
2022/03/17 02:04:54;;;;;;;0.40;0.40;;;4.90;99.90;;;;;;5117214;28;20445;-65
2022/03/17 02:07:44;;;;;;;0.40;0.40;;;4.90;99.90;;;;;;5107117;28;20441;-65
2022/03/17 02:13:08;;;;;;;0.40;0.40;;;4.90;99.90;;;;;;5112259;28;20433;-65
2022/03/17 02:13:36;;;;;;;0.40;0.40;;;4.90;99.90;;;;;;5117608;28;20536;-67
2022/03/17 02:16:23;;;;;;;0.40;0.40;;;4.80;99.90;;;;;;5118183;28;20619;-65
2022/03/17 02:19:12;;;;;;;0.50;0.50;;;4.90;99.90;;;;;;5118203;28;20422;-66
2022/03/17 02:21:59;;;;;;;0.40;0.40;;;4.90;99.90;;;;;;5117502;28;20416;-66
2022/03/17 02:27:53;;;;;;;0.40;0.40;;;4.70;99.90;;;;;;5118744;27;20805;-66
2022/03/17 02:30:40;;;;;;;0.40;0.40;;;4.70;99.90;;;;;;5117786;28;20669;-65
2022/03/17 02:33:27;;;;;;;0.40;0.40;;;4.80;99.90;;;;;;5116060;28;20429;-66
2022/03/17 02:36:14;;;;;;;0.40;0.40;;;4.70;99.90;;;;;;5117481;28;20510;-66
2022/03/17 02:39:01;;;;;;;0.60;0.60;;;4.70;99.90;;;;;;5118617;27;20422;-66
2022/03/17 02:41:49;;;;;;;0.40;0.40;;;4.70;99.90;;;;;;5116985;28;20417;-66
2022/03/17 02:44:36;;;;;;;0.40;0.40;;;4.70;99.90;;;;;;5116896;28;20445;-66
2022/03/17 02:47:23;;;;;;;0.40;0.40;;;5.90;99.90;;;;;;5118665;28;20436;-66
2022/03/17 02:50:11;;;;;;;0.40;0.40;;;4.70;99.90;;;;;;5117596;28;20475;-66
2022/03/17 02:53:04;;;;;;;0.40;0.40;;;4.80;99.90;;;;;;5116578;28;20552;-66
2022/03/17 02:55:51;;;;;;;0.40;0.40;;;4.80;99.90;;;;;;5118090;28;20861;-66
2022/03/17 02:58:40;;;;;;;0.40;0.40;;;4.70;99.90;;;;;;5117163;28;20475;-66
2022/03/17 03:01:26;;;;;;;0.40;0.40;;;4.90;99.90;;;;;;5117855;28;20426;-66
2022/03/17 03:04:16;;;;;;;0.60;0.60;;;4.80;99.90;;;;;;5116287;28;20521;-66
2022/03/17 03:07:06;;;;;;;0.40;0.40;;;4.70;99.90;;;;;;5118055;28;20432;-66
2022/03/17 03:09:52;;;;;;;0.40;0.40;;;4.70;99.90;;;;;;5117152;28;20547;-66
2022/03/17 03:12:40;;;;;;;0.40;0.40;;;4.70;99.90;;;;;;5114958;28;20464;-67
2022/03/17 03:15:29;;;;;;;0.40;0.40;;;4.70;99.90;;;;;;5116752;28;20454;-66
2022/03/17 03:18:16;;;;;;;0.40;0.40;;;4.70;99.90;;;;;;5116799;28;20809;-66
2022/03/17 03:21:03;;;;;;;0.40;0.40;;;4.70;99.90;;;;;;5118295;28;20453;-66
2022/03/17 03:23:50;;;;;;;0.40;0.40;;;4.80;99.90;;;;;;5116854;28;20844;-67
2022/03/17 03:26:37;;;;;;;0.40;0.40;;;4.70;99.90;;;;;;5117111;28;20491;-66
2022/03/17 03:29:25;;;;;;;0.40;0.40;;;4.80;99.90;;;;;;5116269;28;20479;-66
2022/03/17 03:32:13;;;;;;;0.40;0.40;;;4.70;99.90;;;;;;5115360;28;20454;-67
2022/03/17 03:37:22;;;;;;;0.40;0.40;;;4.70;99.90;;;;;;5115462;28;20433;-66
2022/03/17 03:38:06;;;;;;;0.40;0.40;;;4.70;99.90;;;;;;5113735;28;20429;-66
2022/03/17 03:40:53;;;;;;;0.50;0.50;;;4.70;99.90;;;;;;5116412;28;20933;-66
2022/03/17 03:43:40;;;;;;;0.40;0.40;;;4.70;99.90;;;;;;5117195;28;20418;-65
2022/03/17 03:46:27;;;;;;;0.40;0.40;;;4.70;99.90;;;;;;5122681;28;20430;-67
2022/03/17 03:49:15;;;;;;;0.40;0.40;;;4.70;99.90;;;;;;5131604;28;20426;-68
2022/03/17 03:52:02;;;;;;;0.40;0.40;;;4.70;99.90;;;;;;5136485;28;20477;-68
2022/03/17 03:54:49;;;;;;;0.40;0.40;;;4.70;99.90;;;;;;5134595;28;20480;-67
2022/03/17 03:57:36;;;;;;;0.40;0.40;;;4.70;99.90;;;;;;5135316;28;20433;-67
2022/03/17 04:00:31;;;;;;;0.40;0.40;;;4.70;99.90;;;;;;5133284;28;20474;-67
2022/03/17 04:03:18;;;;;;;0.93;0.93;;;4.60;99.90;;;;;;5124004;28;20424;-66
2022/03/17 04:06:07;;;;;;;0.40;0.40;;;4.60;99.90;;;;;;5120084;28;20421;-66
2022/03/17 04:08:53;;;;;;;0.40;0.40;;;4.80;99.90;;;;;;5113907;28;20422;-66
2022/03/17 04:11:40;;;;;;;0.40;0.40;;;4.60;99.90;;;;;;5115769;28;20546;-66
2022/03/17 04:14:28;;;;;;;0.50;0.50;;;4.60;99.90;;;;;;5116910;28;20526;-67
2022/03/17 04:17:15;;;;;;;0.40;0.40;;;4.60;99.90;;;;;;5114560;28;20430;-66
2022/03/17 04:20:02;;;;;;;0.40;0.40;;;4.60;99.90;;;;;;5116074;28;20507;-66
2022/03/17 04:22:50;;;;;;;0.40;0.40;;;4.60;99.90;;;;;;5115901;28;20462;-66
2022/03/17 04:25:37;;;;;;;0.40;0.40;;;4.60;99.90;;;;;;5115671;28;20917;-66
2022/03/17 04:28:24;;;;;;;0.40;0.40;;;4.60;99.90;;;;;;5114971;28;20418;-66
2022/03/17 04:31:12;;;;;;;0.40;0.40;;;4.60;99.90;;;;;;5115064;28;20953;-66
2022/03/17 04:33:59;;;;;;;0.40;0.40;;;4.70;99.90;;;;;;5114837;28;20449;-66
2022/03/17 04:36:46;;;;;;;0.40;0.40;;;4.60;99.90;;;;;;5114992;28;20479;-66
2022/03/17 04:39:34;;;;;;;0.40;0.40;;;4.60;99.90;;;;;;5114166;28;20425;-66
2022/03/17 04:42:21;;;;;;;0.40;0.40;;;4.70;99.90;;;;;;5113899;28;20827;-66
2022/03/17 04:45:09;;;;;;;0.40;0.40;;;4.70;99.90;;;;;;5116415;28;20426;-67
2022/03/17 04:47:56;;;;;;;0.40;0.40;;;4.70;99.90;;;;;;5114152;28;20411;-66
2022/03/17 04:50:43;;;;;;;0.40;0.40;;;4.70;99.90;;;;;;5114767;28;20421;-65
2022/03/17 04:53:32;;;;;;;0.40;0.40;;;4.70;99.90;;;;;;5114744;28;20503;-66
2022/03/17 04:56:20;;;;;;;0.40;0.40;;;4.60;99.90;;;;;;5114608;28;20421;-66
2022/03/17 04:59:07;;;;;;;0.93;0.93;;;4.60;99.90;;;;;;5114668;28;20507;-66
2022/03/17 05:01:54;;;;;;;0.40;0.40;;;4.70;99.90;;;;;;5114478;28;20429;-66
2022/03/17 05:04:41;;;;;;;0.40;0.40;;;4.70;99.90;;;;;;5115405;28;20468;-67
2022/03/17 05:07:28;;;;;;;0.40;0.40;;;4.60;99.90;;;;;;5114398;28;20479;-66
2022/03/17 05:10:15;;;;;;;0.40;0.40;;;4.70;99.90;;;;;;5114501;28;20426;-66
2022/03/17 05:13:05;;;;;;;0.40;0.40;;;4.60;99.90;;;;;;5115824;27;20461;-66
2022/03/17 05:15:52;;;;;;;0.40;0.40;;;4.60;99.90;;;;;;5114430;28;20445;-66
2022/03/17 05:18:39;;;;;;;0.60;0.60;;;4.60;99.90;;;;;;5113978;28;20550;-66
2022/03/17 05:21:26;;;;;;;0.40;0.40;;;4.60;99.90;;;;;;5114311;28;20418;-66
2022/03/17 05:24:13;;;;;;;0.40;0.40;;;4.70;99.90;;;;;;5114772;28;20932;-66
2022/03/17 05:27:00;;;;;;;0.93;0.93;;;4.60;99.90;;;;;;5114198;28;20449;-66
2022/03/17 05:29:48;;;;;;;0.40;0.40;;;4.60;99.90;;;;;;5114890;28;20781;-66
2022/03/17 05:32:35;;;;;;;0.40;0.40;;;4.60;99.90;;;;;;5114530;28;20461;-66
2022/03/17 05:35:22;;;;;;;0.40;0.40;;;4.60;99.90;;;;;;5114805;28;20874;-66
2022/03/17 05:38:10;;;;;;;0.60;0.60;;;4.60;99.90;;;;;;5113816;28;20429;-66
2022/03/17 05:40:57;;;;;;;0.40;0.40;;;4.60;99.90;;;;;;5115074;28;20465;-66
2022/03/17 05:43:43;;;;;;;0.40;0.40;;;4.50;99.90;;;;;;5113925;28;20960;-66
2022/03/17 05:46:32;;;;;;;0.40;0.40;;;4.60;99.90;;;;;;5114880;28;20418;-66
2022/03/17 05:49:19;;;;;;;0.40;0.40;;;4.70;99.90;;;;;;5116743;28;20422;-66
2022/03/17 05:52:06;;;;;;;0.40;0.40;;;4.60;99.90;;;;;;5116546;28;20855;-66
2022/03/17 05:54:53;;;;;;;0.40;0.40;;;4.60;99.90;;;;;;5119586;28;20449;-67
2022/03/17 05:57:42;;;;;;;0.40;0.40;;;4.60;99.90;;;;;;5113353;28;20845;-67
2022/03/17 06:00:30;;;;;;;0.40;0.40;;;4.70;99.90;;;;;;5113710;28;20430;-67
2022/03/17 06:03:18;;;;;;;0.40;0.40;;;4.70;99.90;;;;;;5115195;28;20415;-67
2022/03/17 06:06:06;;;;;;;0.40;0.40;;;4.80;99.90;;;;;;5115410;28;20475;-67
2022/03/17 06:08:53;;;;;;;0.40;0.40;;;4.80;99.90;;;;;;5115171;28;20425;-66
2022/03/17 06:11:41;;;;;;;0.40;0.40;;;4.90;99.90;;;;;;5115620;28;20945;-66
2022/03/17 06:14:28;;;;;;;1.10;1.07;;;5.00;99.90;;;;;;5115403;28;20437;-66
2022/03/17 06:17:15;;;;;;;0.40;0.40;;;5.00;99.90;;;;;;5115629;28;20444;-66
2022/03/17 06:20:04;;;;;;;0.40;0.40;;;5.10;99.90;;;;;;5116165;28;20434;-67
2022/03/17 06:22:53;;;;;;;0.40;0.40;;;5.10;99.90;;;;;;5116109;28;20414;-66
2022/03/17 06:25:40;;;;;;;0.40;0.40;;;5.20;99.90;;;;;;5116343;28;20484;-67
2022/03/17 06:28:27;;;;;;;0.97;0.97;;;5.30;99.90;;;;;;5120189;28;20757;-67
2022/03/17 06:31:14;;;;;;;0.40;0.40;;;5.50;99.90;;;;;;5119209;28;20440;-67
2022/03/17 06:34:01;;;;;;;0.43;0.43;;;5.60;99.90;;;;;;5119469;28;21039;-66
2022/03/17 06:36:49;;;;;;;0.40;0.40;;;5.60;99.90;;;;;;5112152;28;20429;-67
2022/03/17 06:39:36;;;;;;;0.77;0.77;;;5.80;99.90;;;;;;5111636;28;20950;-67
2022/03/17 06:42:23;;;;;;;0.40;0.40;;;6.00;99.90;;;;;;5117924;28;20483;-66
2022/03/17 06:45:10;;;;;;;0.40;0.40;;;5.90;99.90;;;;;;5120098;28;20445;-67
2022/03/17 06:47:57;;;;;;;0.40;0.40;;;6.00;99.90;;;;;;5128490;28;20420;-68
2022/03/17 06:50:45;;;;;;;0.50;0.50;;;6.00;99.90;;;;;;5136748;28;20451;-68
2022/03/17 06:53:33;;;;;;;3.13;3.03;;;6.10;99.90;;;;;;5134825;28;20465;-67
2022/03/17 06:56:20;;;;;;;1.47;1.47;;;6.20;99.90;;;;;;5135232;28;20426;-66
2022/03/17 06:59:07;;;;;;;0.40;0.40;;;6.20;99.90;;;;;;5135293;28;20413;-67
2022/03/17 07:01:53;;;;;;;0.40;0.40;;;6.30;99.90;;;;;;5135078;28;20455;-67
2022/03/17 07:04:40;;;;;;;1.77;1.33;;;6.50;99.90;;;;;;5132512;28;20448;-66
2022/03/17 07:07:28;;;;;;;0.50;0.50;;;6.50;99.90;;;;;;5131974;28;20418;-66
2022/03/17 07:10:16;;;;;;;0.50;0.50;;;6.50;99.90;;;;;;5135243;28;20441;-66
2022/03/17 07:13:03;;;;;;;0.40;0.40;;;6.50;99.90;;;;;;5135918;28;20465;-69
2022/03/17 07:15:50;;;;;;;0.40;0.40;;;6.70;99.90;;;;;;5135662;28;20452;-66
2022/03/17 07:18:37;;;;;;;0.40;0.40;;;6.70;99.90;;;;;;5135110;28;20426;-68
2022/03/17 07:21:24;;;;;;;3.43;2.10;;;6.60;99.90;;;;;;5134844;28;20433;-67
2022/03/17 07:24:11;;;;;;;1.77;1.77;;;6.80;99.90;;;;;;5125824;28;20457;-67
2022/03/17 07:26:59;;;;;;;2.43;1.37;;;6.70;99.90;;;;;;5136337;28;20450;-67
2022/03/17 07:29:46;;;;;;;0.50;0.50;;;7.00;99.90;;;;;;5132362;28;20422;-67
2022/03/17 07:32:33;;;;;;;0.80;0.80;;;7.10;99.90;;;;;;5131202;28;20969;-67
2022/03/17 07:35:22;;;;;;;0.40;0.40;;;7.20;99.90;;;;;;5129901;28;20589;-67
2022/03/17 07:38:09;;;;;;;0.57;0.57;;;7.30;99.90;;;;;;5133117;27;20425;-67
2022/03/17 07:40:55;;;;;;;0.70;0.70;;;7.40;99.90;;;;;;5133726;28;20471;-67
2022/03/17 07:43:44;;;;;;;0.50;0.50;;;7.50;99.90;;;;;;5133354;28;20422;-67
2022/03/17 07:46:31;;;;;;;0.50;0.50;;;7.60;99.90;;;;;;5119257;27;20984;-67
2022/03/17 07:49:18;;;;;;;0.50;0.50;;;7.60;99.90;;;;;;5116418;28;20418;-68
2022/03/17 07:52:06;;;;;;;0.50;0.50;;;7.70;99.90;;;;;;5104476;28;20435;-67
2022/03/17 07:54:53;;;;;;;1.13;1.03;;;7.80;99.90;;;;;;5102978;28;20435;-66
2022/03/17 07:57:41;;;;;;;0.60;0.60;;;7.90;99.90;;;;;;5114059;28;20539;-67
2022/03/17 08:00:29;;;;;;;0.60;0.60;;;8.00;99.90;;;;;;5117759;27;20476;-68
2022/03/17 08:03:16;;;;;;;3.40;1.47;;;8.20;99.90;;;;;;5117266;28;20422;-67
2022/03/17 08:06:03;;;;;;;0.40;0.40;;;8.10;99.90;;;;;;5118129;27;20534;-67
2022/03/17 08:08:50;;;;;;;2.20;2.10;;;8.10;99.90;;;;;;5115177;28;20456;-67
2022/03/17 08:11:37;;;;;;;1.97;1.87;;;8.10;99.90;;;;;;5118592;27;20490;-67
2022/03/17 08:14:24;;;;;;;0.50;0.50;;;8.20;99.90;;;;;;5107937;28;20466;-67
2022/03/17 08:17:13;;;;;;;0.40;0.40;;;8.30;99.90;;;;;;5098793;28;20510;-67
2022/03/17 08:19:59;;;;;;;4.13;3.73;;;8.40;99.90;;;;;;5104842;28;21006;-67
2022/03/17 08:22:49;;;;;;;0.60;0.60;;;8.50;99.90;;;;;;5106779;28;20411;-67
2022/03/17 08:25:36;;;;;;;0.40;0.40;;;8.60;99.90;;;;;;5107409;28;20494;-68
2022/03/17 08:28:24;;;;;;;0.40;0.40;;;8.60;99.90;;;;;;5117077;28;20949;-67
2022/03/17 08:31:11;;;;;;;0.50;0.50;;;8.70;99.90;;;;;;5127673;28;20441;-68
2022/03/17 08:33:59;;;;;;;0.50;0.50;;;8.60;99.90;;;;;;5127437;28;20507;-68
2022/03/17 08:36:47;;;;;;;0.40;0.40;;;8.60;99.90;;;;;;5128420;28;20428;-67
2022/03/17 08:39:34;;;;;;;0.60;0.60;;;8.70;99.90;;;;;;5134223;28;20421;-67
2022/03/17 08:42:21;;;;;;;0.80;0.80;;;8.80;99.90;;;;;;5132725;28;20476;-67
2022/03/17 08:51:16;;;;;;;1.13;1.13;;;8.90;99.90;;;;;;5116078;27;20422;-67
2022/03/17 08:54:03;;;;;;;3.10;2.80;;;8.90;99.90;;;;;;5097431;27;20466;-68
2022/03/17 08:56:50;;;;;;;0.60;0.60;;;8.80;99.90;;;;;;5106321;28;20437;-68
2022/03/17 08:59:38;;;;;;;0.40;0.40;;;8.70;99.90;;;;;;5117440;28;20422;-67
2022/03/17 09:02:25;;;;;;;2.70;2.60;;;8.90;99.90;;;;;;5107682;28;20422;-67
2022/03/17 09:05:12;;;;;;;2.33;2.33;;;8.90;99.90;;;;;;5116716;28;20466;-67
2022/03/17 09:08:00;;;;;;;6.83;1.57;;;9.10;99.90;;;;;;5117503;28;20452;-67
2022/03/17 09:10:49;;;;;;;0.70;0.70;;;9.20;99.90;;;;;;5108844;28;20429;-67
2022/03/17 09:13:36;;;;;;;2.50;2.40;;;9.30;99.90;;;;;;5113683;28;20526;-67
2022/03/17 09:16:23;;;;;;;1.63;1.63;;;9.30;99.90;;;;;;5114617;28;20418;-68
2022/03/17 09:19:10;;;;;;;0.40;0.40;;;9.50;99.90;;;;;;5114541;28;20429;-68
2022/03/17 09:21:57;;;;;;;0.50;0.50;;;9.60;99.90;;;;;;5113298;28;20529;-68
2022/03/17 09:24:48;;;;;;;1.80;1.57;;;9.80;99.90;;;;;;5115848;28;20827;-67
2022/03/17 09:27:35;;;;;;;2.00;1.90;;;9.90;99.90;;;;;;5114192;28;20509;-68
2022/03/17 09:30:23;;;;;;;0.73;0.73;;;10.00;99.90;;;;;;5111794;28;20474;-67
2022/03/17 09:33:11;;;;;;;1.00;0.90;;;10.10;99.90;;;;;;5108347;28;20474;-67
2022/03/17 09:35:58;;;;;;;5.63;3.47;;;10.10;99.90;;;;;;5095926;28;20829;-68
2022/03/17 09:39:39;;;;;;;3.93;2.60;;;10.20;99.90;;;;;;5103110;28;20850;-69
2022/03/17 09:41:54;;;;;;;3.50;1.33;;;10.10;99.90;;;;;;5113411;28;20523;-67
2022/03/17 09:44:41;;;;;;;0.70;0.70;;;10.10;99.90;;;;;;5110920;28;21012;-67
2022/03/17 09:47:29;;;;;;;7.20;2.60;;;10.00;99.90;;;;;;5094119;28;20446;-67
2022/03/17 09:50:17;;;;;;;2.03;1.93;;;10.00;99.90;;;;;;5095299;28;20467;-66
2022/03/17 09:53:04;;;;;;;1.93;1.83;;;10.00;99.90;;;;;;5094155;28;20977;-68
2022/03/17 09:55:51;;;;;;;2.43;2.33;;;10.00;99.90;;;;;;5093848;28;20451;-67
2022/03/17 09:58:40;;;;;;;0.50;0.50;;;10.10;99.90;;;;;;5093672;28;20528;-67
2022/03/17 10:01:27;;;;;;;3.07;2.93;;;10.30;99.90;;;;;;5094034;28;20427;-67
2022/03/17 10:04:15;;;;;;;0.50;0.50;;;10.40;99.90;;;;;;5095332;28;20445;-68
2022/03/17 10:07:03;;;;;;;1.93;1.83;;;10.50;99.90;;;;;;5099930;28;20461;-68
2022/03/17 10:09:51;;;;;;;3.00;2.87;;;10.60;99.90;;;;;;5107258;28;20429;-66
2022/03/17 10:12:38;;;;;;;1.67;1.57;;;10.70;99.90;;;;;;5105666;28;20419;-66
2022/03/17 10:15:26;;;;;;;0.40;0.40;;;10.80;99.90;;;;;;5110743;28;20441;-66
2022/03/17 10:18:23;;;;;;;0.80;0.80;;;10.90;99.90;;;;;;5112650;28;20933;-66
2022/03/17 10:21:11;;;;;;;1.60;1.50;;;11.10;99.90;;;;;;5112956;28;21163;-65
2022/03/17 10:24:01;;;;;;;0.73;0.73;;;11.10;99.90;;;;;;5111300;28;20421;-67
2022/03/17 10:26:50;;;;;;;0.40;0.40;;;11.00;99.90;;;;;;5113433;28;20791;-67
2022/03/17 10:29:37;;;;;;;3.93;3.53;;;11.20;99.90;;;;;;5117472;28;20414;-66
2022/03/17 10:32:25;;;;;;;1.57;1.50;;;11.20;99.90;;;;;;5118197;28;20424;-67
2022/03/17 10:35:12;;;;;;;1.37;1.37;;;11.30;99.90;;;;;;5118071;28;20473;-66
2022/03/17 10:38:09;;;;;;;0.40;0.40;;;11.30;99.90;;;;;;5118773;28;20422;-67
2022/03/17 10:41:04;;;;;;;3.33;3.03;;;11.40;99.90;;;;;;5119902;27;20417;-67
2022/03/17 10:43:59;;;;;;;2.43;2.33;;;11.50;99.90;;;;;;5119899;28;20429;-67
2022/03/17 10:47:01;;;;;;;1.13;1.10;;;11.70;99.90;;;;;;5130954;28;20423;-68
2022/03/17 10:50:10;;;;;;;0.90;0.90;;;11.80;99.90;;;;;;5115136;28;20402;-67
2022/03/17 10:52:58;;;;;;;1.17;1.07;;;11.90;99.90;;;;;;5126933;28;20438;-67
2022/03/17 10:55:45;;;;;;;1.00;1.00;;;12.00;99.90;;;;;;5121674;28;20575;-68
2022/03/17 10:58:41;;;;;;;0.93;0.93;;;12.10;99.90;;;;;;5121089;28;20478;-67
2022/03/17 11:01:45;;;;;;;2.37;2.27;;;12.10;99.90;;;;;;5109941;28;20426;-69
2022/03/17 11:04:33;;;;;;;0.97;0.97;;;12.20;99.90;;;;;;5111418;28;20502;-67
2022/03/17 11:07:23;;;;;;;0.50;0.50;;;12.50;99.90;;;;;;5107136;28;20958;-67
2022/03/17 11:10:10;;;;;;;1.90;1.33;;;12.70;99.90;;;;;;5108444;28;20417;-67
2022/03/17 11:12:59;;;;;;;5.50;2.27;;;12.70;99.90;;;;;;5113172;28;20434;-67
2022/03/17 11:15:56;;;;;;;1.10;1.10;;;12.90;99.90;;;;;;5109395;28;20486;-67
2022/03/17 11:18:43;;;;;;;3.20;2.90;;;12.90;99.90;;;;;;5111952;28;20426;-67
2022/03/17 11:21:31;;;;;;;4.50;4.17;;;13.00;99.90;;;;;;5105823;27;20421;-67
2022/03/17 11:24:22;;;;;;;0.40;0.40;;;13.10;99.90;;;;;;5105863;28;20462;-67
2022/03/17 11:27:11;;;;;;;0.40;0.40;;;13.30;99.90;;;;;;5107485;28;20420;-67
2022/03/17 11:30:00;;;;;;;0.73;0.73;;;13.40;99.90;;;;;;5105493;28;20426;-67
2022/03/17 11:32:51;;;;;;;3.83;3.50;;;13.50;99.90;;;;;;5104331;28;20415;-69
2022/03/17 11:35:38;;;;;;;3.90;1.33;;;13.50;99.90;;;;;;5103579;28;20496;-67
2022/03/17 11:38:27;;;;;;;0.50;0.50;;;13.50;99.90;;;;;;5103313;28;20430;-67
2022/03/17 11:41:16;;;;;;;0.70;0.70;;;13.70;99.90;;;;;;5099656;28;20848;-67
2022/03/17 11:44:04;;;;;;;0.70;0.70;;;13.80;99.90;;;;;;5098172;28;20874;-67
2022/03/17 11:46:51;;;;;;;2.43;2.20;;;13.80;99.90;;;;;;5099706;28;20506;-67
2022/03/17 11:49:46;;;;;;;0.40;0.40;;;14.00;99.90;;;;;;5104578;28;20448;-66
2022/03/17 11:52:33;;;;;;;0.57;0.57;;;14.20;99.90;;;;;;5108663;28;20439;-66
2022/03/17 11:55:34;;;;;;;0.97;0.97;;;14.10;99.90;;;;;;5104781;28;20486;-66
2022/03/17 11:58:26;;;;;;;1.33;1.33;;;14.30;99.90;;;;;;5105500;27;20426;-69
2022/03/17 12:01:23;;;;;;;0.40;0.40;;;14.40;99.90;;;;;;5106007;28;20473;-67
2022/03/17 12:04:21;;;;;;;6.43;3.80;;;14.10;99.90;;;;;;5104861;28;20439;-68
2022/03/17 12:07:12;;;;;;;0.70;0.70;;;14.10;99.90;;;;;;5113452;28;20509;-67
2022/03/17 12:09:59;;;;;;;0.50;0.50;;;14.00;99.90;;;;;;5118176;28;20422;-67
2022/03/17 12:12:48;;;;;;;0.40;0.40;;;13.80;99.90;;;;;;5095168;28;20453;-66
2022/03/17 12:15:39;;;;;;;0.40;0.40;;;13.70;99.90;;;;;;5106836;28;20831;-65
2022/03/17 12:18:26;;;;;;;0.50;0.50;;;13.80;99.90;;;;;;5108481;28;20431;-65
2022/03/17 12:21:13;;;;;;;1.00;1.00;;;13.60;99.90;;;;;;5116016;28;20595;-68
2022/03/17 12:24:03;;;;;;;0.73;0.73;;;13.60;99.90;;;;;;5118647;28;20471;-67
2022/03/17 12:27:02;;;;;;;1.10;1.10;;;13.60;99.90;;;;;;5120541;28;20804;-67
2022/03/17 12:29:50;;;;;;;0.40;0.40;;;13.40;99.90;;;;;;5125253;28;20422;-66
2022/03/17 12:32:40;;;;;;;0.40;0.40;;;13.30;99.90;;;;;;5122896;28;20426;-66
2022/03/17 12:35:30;;;;;;;1.67;1.67;;;13.40;99.90;;;;;;5124579;28;20473;-67
2022/03/17 12:38:20;;;;;;;1.10;1.10;;;13.40;99.90;;;;;;5122442;28;20418;-68
2022/03/17 12:41:12;;;;;;;1.20;1.20;;;13.40;99.90;;;;;;5121880;28;20424;-67
2022/03/17 12:44:00;;;;;;;0.70;0.70;;;13.40;99.90;;;;;;5102463;28;20426;-68
2022/03/17 12:46:47;;;;;;;1.80;1.70;;;13.50;99.90;;;;;;5115085;28;20422;-67
2022/03/17 12:49:35;;;;;;;0.40;0.40;;;13.70;99.90;;;;;;5116524;28;20429;-66
2022/03/17 12:52:25;;;;;;;0.87;0.87;;;13.70;99.90;;;;;;5117029;28;20422;-66
2022/03/17 12:55:13;;;;;;;1.17;1.07;;;13.90;99.90;;;;;;5116998;28;20470;-67
2022/03/17 12:58:02;;;;;;;6.40;1.73;;;13.80;99.90;;;;;;5116101;28;20418;-66
2022/03/17 13:00:50;;;;;;;1.53;1.43;;;13.80;99.90;;;;;;5117262;27;20414;-66
2022/03/17 13:03:37;;;;;;;1.80;1.70;;;13.70;99.90;;;;;;5116563;28;20422;-66
2022/03/17 13:09:31;;;;;;;1.57;1.47;;;13.60;99.90;;;;;;5116529;28;20433;-67
2022/03/17 13:15:35;;;;;;;0.77;0.77;;;13.40;99.90;;;;;;5079506;28;20940;-65
2022/03/17 13:18:24;;;;;;;0.40;0.40;;;13.40;99.90;;;;;;5124563;28;20450;-67
2022/03/17 13:21:12;;;;;;;2.40;2.30;;;13.40;99.90;;;;;;5128390;28;20425;-67
2022/03/17 13:24:13;;;;;;;1.20;1.20;;;13.40;99.90;;;;;;5119018;28;20473;-67
2022/03/17 13:27:00;;;;;;;0.50;0.50;;;13.40;99.90;;;;;;5128479;28;20425;-67
2022/03/17 13:29:54;;;;;;;0.40;0.40;;;13.40;99.90;;;;;;5122747;28;20429;-67
2022/03/17 13:32:43;;;;;;;0.40;0.40;;;13.50;99.90;;;;;;5099845;28;20439;-66
2022/03/17 13:35:32;;;;;;;0.40;0.40;;;13.60;99.90;;;;;;5095339;28;20542;-66
2022/03/17 13:38:21;;;;;;;0.40;0.40;;;13.60;99.90;;;;;;5102661;28;20459;-67
2022/03/17 13:41:19;;;;;;;1.90;1.83;;;13.50;99.90;;;;;;5110905;28;20414;-66
2022/03/17 13:44:08;;;;;;;10.40;3.50;;;13.50;99.90;;;;;;5104477;28;20869;-66
2022/03/17 13:47:10;;;;;;;2.10;2.00;;;13.70;99.90;;;;;;5104261;28;20504;-67
2022/03/17 13:50:16;;;;;;;2.60;2.10;;;13.60;99.90;;;;;;5103250;28;20430;-66
2022/03/17 13:53:05;;;;;;;0.40;0.40;;;13.70;99.90;;;;;;5111542;28;20437;-66
2022/03/17 13:55:55;;;;;;;0.40;0.40;;;13.90;99.90;;;;;;5114064;28;20461;-66
2022/03/17 13:58:45;;;;;;;0.40;0.40;;;14.00;99.90;;;;;;5115383;28;20417;-67
2022/03/17 14:01:32;;;;;;;0.50;0.50;;;14.00;99.90;;;;;;5113341;28;20434;-66
2022/03/17 14:04:28;;;;;;;0.40;0.40;;;14.00;99.90;;;;;;5107002;28;20505;-68
2022/03/17 14:07:15;;;;;;;1.93;1.83;;;13.90;99.90;;;;;;5107842;28;20431;-67
2022/03/17 14:10:02;;;;;;;0.40;0.40;;;13.90;99.90;;;;;;5109083;28;20418;-66
2022/03/17 14:12:48;;;;;;;0.77;0.77;;;13.60;99.90;;;;;;5101756;28;20433;-66
2022/03/17 14:15:37;;;;;;;0.40;0.40;;;13.60;99.90;;;;;;5108980;28;20473;-65
2022/03/17 14:18:24;;;;;;;0.40;0.40;;;13.70;99.90;;;;;;5109034;28;20446;-67
2022/03/17 14:21:12;;;;;;;0.40;0.40;;;13.60;99.90;;;;;;5112080;28;20446;-68
2022/03/17 14:24:11;;;;;;;1.53;1.30;;;13.40;99.90;;;;;;5113127;28;20441;-66
2022/03/17 14:26:59;;;;;;;3.17;3.03;;;13.40;99.90;;;;;;5107528;28;20418;-66
2022/03/17 14:29:47;;;;;;;0.40;0.40;;;13.30;99.90;;;;;;5096076;28;20419;-67
2022/03/17 14:32:35;;;;;;;0.40;0.40;;;13.20;99.90;;;;;;5102996;28;20450;-67
2022/03/17 14:35:22;;;;;;;0.40;0.40;;;13.10;99.90;;;;;;5103444;28;20820;-66
2022/03/17 14:38:10;;;;;;;0.40;0.40;;;13.10;99.90;;;;;;5109600;28;20471;-65
2022/03/17 14:40:57;;;;;;;0.40;0.40;;;13.10;99.90;;;;;;5114019;28;20442;-65
2022/03/17 14:43:45;;;;;;;0.40;0.40;;;13.10;99.90;;;;;;5113757;28;20907;-65
2022/03/17 14:46:32;;;;;;;0.40;0.40;;;13.00;99.90;;;;;;5111873;28;20467;-66
2022/03/17 14:49:20;;;;;;;0.40;0.40;;;13.10;99.90;;;;;;5113639;28;20471;-67
2022/03/17 14:52:08;;;;;;;0.40;0.40;;;13.10;99.90;;;;;;5093457;28;20560;-65
2022/03/17 14:54:55;;;;;;;0.40;0.40;;;13.10;99.90;;;;;;5104793;28;20493;-65
2022/03/17 14:57:41;;;;;;;0.40;0.40;;;13.20;99.90;;;;;;5114040;28;20421;-67
2022/03/17 15:00:28;;;;;;;0.40;0.40;;;13.10;99.90;;;;;;5114895;28;20433;-66